createdAt,value
2017-07-03T00:00:54.926Z,102374.05
2017-07-03T00:03:22.834Z,102368.72
2017-07-03T00:05:50.747Z,102368.72
2017-07-03T00:08:18.681Z,102368.25
2017-07-03T00:10:46.625Z,102368.72
2017-07-03T00:13:14.547Z,102371.41
2017-07-03T00:15:42.500Z,102374.09
2017-07-03T00:18:10.426Z,102374.12
2017-07-03T00:20:38.366Z,102373.69
2017-07-03T00:23:06.286Z,102371.44
2017-07-03T00:25:34.212Z,102372.34
2017-07-03T00:28:02.135Z,102372.81
2017-07-03T00:30:30.080Z,102371.91
2017-07-03T00:32:58.000Z,102379.09
2017-07-03T00:35:25.936Z,102372.84
2017-07-03T00:37:53.849Z,102372.84
2017-07-03T00:40:21.757Z,102368.82
2017-07-03T00:42:49.693Z,102363.88
2017-07-03T00:45:17.629Z,102362.11
2017-07-03T00:47:45.550Z,102354.98
2017-07-03T00:50:13.484Z,102354.08
2017-07-03T00:52:41.389Z,102356.77
2017-07-03T00:55:09.333Z,102349.61
2017-07-03T00:57:37.245Z,102346.05
2017-07-03T01:00:05.152Z,102344.31
2017-07-03T01:02:33.062Z,102343.88
2017-07-03T01:05:00.981Z,102347.44
2017-07-03T01:07:28.907Z,102347.91
2017-07-03T01:09:56.830Z,102348.81
2017-07-03T01:12:24.749Z,102346.13
2017-07-03T01:14:52.694Z,102350.59
2017-07-03T01:17:20.608Z,102347.94
2017-07-03T01:19:48.548Z,102352.00
2017-07-03T01:22:16.493Z,102344.41
2017-07-03T01:24:44.440Z,102343.98
2017-07-03T01:27:12.381Z,102347.61
2017-07-03T01:29:40.328Z,102347.17
2017-07-03T01:32:08.252Z,102342.67
2017-07-03T01:34:36.161Z,102335.59
2017-07-03T01:37:04.094Z,102334.69
2017-07-03T01:39:32.001Z,102334.28
2017-07-03T01:41:59.920Z,102340.52
2017-07-03T01:44:27.829Z,102343.68
2017-07-03T01:46:55.750Z,102340.12
2017-07-03T01:49:23.667Z,102336.53
2017-07-03T01:51:51.585Z,102337.00
2017-07-03T01:54:19.493Z,102338.37
2017-07-03T01:56:47.420Z,102334.35
2017-07-03T01:59:15.333Z,102337.47
2017-07-03T02:01:43.253Z,102331.23
2017-07-03T02:04:11.174Z,102333.95
2017-07-03T02:06:39.125Z,102329.52
2017-07-03T02:09:07.042Z,102322.37
2017-07-03T02:11:34.958Z,102325.56
2017-07-03T02:14:02.877Z,102326.86
2017-07-03T02:16:30.817Z,102330.97
2017-07-03T02:18:58.746Z,102328.72
2017-07-03T02:21:26.661Z,102326.94
2017-07-03T02:23:54.572Z,102318.91
2017-07-03T02:26:22.513Z,102314.88
2017-07-03T02:28:50.443Z,102315.79
2017-07-03T02:31:18.361Z,102311.80
2017-07-03T02:33:46.299Z,102309.58
2017-07-03T02:36:14.219Z,102310.92
2017-07-03T02:38:42.126Z,102307.80
2017-07-03T02:41:10.037Z,102310.92
2017-07-03T02:43:37.955Z,102310.96
2017-07-03T02:46:05.884Z,102306.06
2017-07-03T02:48:33.824Z,102298.00
2017-07-03T02:51:01.778Z,102299.78
2017-07-03T02:53:29.701Z,102299.81
2017-07-03T02:55:57.629Z,102302.03
2017-07-03T02:58:25.575Z,102298.11
2017-07-03T03:00:54.262Z,102299.02
2017-07-03T03:03:22.189Z,102295.42
2017-07-03T03:05:50.099Z,102299.89
2017-07-03T03:08:18.041Z,102298.58
2017-07-03T03:10:45.969Z,102298.22
2017-07-03T03:13:13.909Z,102293.28
2017-07-03T03:15:41.818Z,102292.84
2017-07-03T03:18:09.727Z,102291.06
2017-07-03T03:20:37.665Z,102289.35
2017-07-03T03:23:05.624Z,102294.25
2017-07-03T03:25:33.528Z,102288.45
2017-07-03T03:28:01.456Z,102289.83
2017-07-03T03:30:29.363Z,102286.27
2017-07-03T03:32:57.277Z,102282.31
2017-07-03T03:35:25.209Z,102286.77
2017-07-03T03:37:53.121Z,102285.47
2017-07-03T03:40:21.029Z,102286.34
2017-07-03T03:42:48.945Z,102281.98
2017-07-03T03:45:16.871Z,102280.60
2017-07-03T03:47:44.827Z,102270.30
2017-07-03T03:50:12.745Z,102266.30
2017-07-03T03:52:40.660Z,102266.77
2017-07-03T03:55:08.577Z,102265.86
2017-07-03T03:57:36.488Z,102264.56
2017-07-03T04:00:04.409Z,102261.88
2017-07-03T04:02:32.321Z,102258.35
2017-07-03T04:05:00.244Z,102260.60
2017-07-03T04:07:28.157Z,102261.51
2017-07-03T04:09:56.098Z,102258.86
2017-07-03T04:12:24.048Z,102256.14
2017-07-03T04:14:51.966Z,102255.27
2017-07-03T04:17:19.889Z,102248.55
2017-07-03T04:19:47.833Z,102265.09
2017-07-03T04:22:15.788Z,102261.55
2017-07-03T04:24:43.723Z,102258.42
2017-07-03T04:27:11.638Z,102254.47
2017-07-03T04:29:39.582Z,102249.06
2017-07-03T04:32:07.525Z,102249.06
2017-07-03T04:34:35.450Z,102245.06
2017-07-03T04:37:03.381Z,102246.41
2017-07-03T04:39:31.293Z,102251.34
2017-07-03T04:41:59.230Z,102250.47
2017-07-03T04:44:27.146Z,102259.00
2017-07-03T04:46:55.054Z,102262.08
2017-07-03T04:49:22.985Z,102255.41
2017-07-03T04:51:50.895Z,102253.19
2017-07-03T04:54:18.880Z,102257.18
2017-07-03T04:56:46.796Z,102256.34
2017-07-03T04:59:14.718Z,102251.88
2017-07-03T05:01:42.637Z,102252.32
2017-07-03T05:04:10.551Z,102255.91
2017-07-03T05:06:38.473Z,102254.57
2017-07-03T05:09:06.386Z,102251.48
2017-07-03T05:11:34.304Z,102251.02
2017-07-03T05:14:02.248Z,102255.91
2017-07-03T05:16:30.173Z,102254.60
2017-07-03T05:18:58.129Z,102250.21
2017-07-03T05:21:26.069Z,102250.61
2017-07-03T05:23:53.976Z,102251.05
2017-07-03T05:26:21.909Z,102250.61
2017-07-03T05:28:49.824Z,102252.42
2017-07-03T05:31:17.794Z,102251.08
2017-07-03T05:33:45.886Z,102247.48
2017-07-03T05:36:13.817Z,102250.37
2017-07-03T05:38:41.880Z,102242.91
2017-07-03T05:41:09.805Z,102244.85
2017-07-03T05:43:43.860Z,102246.20
2017-07-03T05:46:11.784Z,102247.48
2017-07-03T05:48:39.738Z,102245.66
2017-07-03T05:51:07.736Z,102248.82
2017-07-03T05:53:35.766Z,102247.17
2017-07-03T05:56:03.845Z,102255.70
2017-07-03T05:58:31.991Z,102244.89
2017-07-03T06:01:00.011Z,102257.48
2017-07-03T06:03:28.118Z,102248.02
2017-07-03T06:05:56.044Z,102247.48
2017-07-03T06:08:23.994Z,102250.89
2017-07-03T06:10:51.991Z,102247.61
2017-07-03T06:13:19.904Z,102245.25
2017-07-03T06:15:47.838Z,102249.48
2017-07-03T06:18:15.760Z,102241.30
2017-07-03T06:20:43.703Z,102244.77
2017-07-03T06:23:11.640Z,102243.78
2017-07-03T06:25:39.553Z,102243.69
2017-07-03T06:28:07.478Z,102246.13
2017-07-03T06:30:35.421Z,102247.30
2017-07-03T06:33:03.363Z,102242.30
2017-07-03T06:35:31.288Z,102240.58
2017-07-03T06:37:59.229Z,102242.83
2017-07-03T06:40:27.198Z,102247.05
2017-07-03T06:42:55.121Z,102241.58
2017-07-03T06:45:23.073Z,102237.05
2017-07-03T06:47:50.997Z,102239.13
2017-07-03T06:50:18.908Z,102243.81
2017-07-03T06:52:46.877Z,102252.42
2017-07-03T06:55:14.820Z,102246.95
2017-07-03T06:57:42.730Z,102249.95
2017-07-03T07:00:10.657Z,102250.29
2017-07-03T07:02:38.601Z,102245.72
2017-07-03T07:05:06.522Z,102246.08
2017-07-03T07:07:34.453Z,102245.57
2017-07-03T07:10:02.375Z,102246.41
2017-07-03T07:12:30.314Z,102243.65
2017-07-03T07:14:58.271Z,102252.08
2017-07-03T07:17:26.193Z,102252.47
2017-07-03T07:19:54.157Z,102255.12
2017-07-03T07:22:22.088Z,102251.49
2017-07-03T07:24:50.009Z,102245.21
2017-07-03T07:27:18.010Z,102250.51
2017-07-03T07:29:45.928Z,102253.56
2017-07-03T07:32:13.834Z,102246.80
2017-07-03T07:34:41.745Z,102240.48
2017-07-03T07:37:09.679Z,102236.39
2017-07-03T07:39:37.614Z,102235.95
2017-07-03T07:42:05.553Z,102235.88
2017-07-03T07:44:33.474Z,102234.06
2017-07-03T07:47:01.409Z,102226.00
2017-07-03T07:49:29.318Z,102234.50
2017-07-03T07:51:57.274Z,102231.34
2017-07-03T07:54:25.190Z,102231.70
2017-07-03T07:56:53.110Z,102224.52
2017-07-03T07:59:21.029Z,102217.80
2017-07-03T08:01:48.970Z,102218.19
2017-07-03T08:04:16.894Z,102219.50
2017-07-03T08:06:44.844Z,102219.03
2017-07-03T08:09:12.792Z,102210.06
2017-07-03T08:11:40.742Z,102208.24
2017-07-03T08:14:08.677Z,102209.98
2017-07-03T08:16:36.640Z,102208.61
2017-07-03T08:19:04.564Z,102206.31
2017-07-03T08:21:32.510Z,102209.40
2017-07-03T08:24:00.452Z,102207.15
2017-07-03T08:26:28.389Z,102210.23
2017-07-03T08:28:56.326Z,102199.45
2017-07-03T08:31:24.255Z,102191.83
2017-07-03T08:33:52.179Z,102194.51
2017-07-03T08:36:20.122Z,102193.13
2017-07-03T08:38:48.069Z,102191.31
2017-07-03T08:41:15.997Z,102190.88
2017-07-03T08:43:43.922Z,102176.53
2017-07-03T08:46:11.843Z,102183.61
2017-07-03T08:48:39.789Z,102188.51
2017-07-03T08:51:07.756Z,102178.59
2017-07-03T08:53:35.698Z,102175.03
2017-07-03T08:56:03.613Z,102170.02
2017-07-03T08:58:31.547Z,102175.00
2017-07-03T09:00:59.482Z,102171.00
2017-07-03T09:03:27.403Z,102173.66
2017-07-03T09:05:55.326Z,102169.58
2017-07-03T09:08:23.253Z,102152.11
2017-07-03T09:10:51.186Z,102152.91
2017-07-03T09:13:19.125Z,102157.77
2017-07-03T09:15:47.041Z,102146.08
2017-07-03T09:18:14.998Z,102151.45
2017-07-03T09:20:42.923Z,102139.31
2017-07-03T09:23:10.845Z,102147.34
2017-07-03T09:25:38.769Z,102138.77
2017-07-03T09:28:06.725Z,102145.41
2017-07-03T09:30:34.644Z,102143.16
2017-07-03T09:33:02.591Z,102147.51
2017-07-03T09:35:30.510Z,102152.73
2017-07-03T09:37:58.433Z,102150.88
2017-07-03T09:40:26.371Z,102139.56
2017-07-03T09:42:54.344Z,102143.08
2017-07-03T09:45:22.260Z,102148.86
2017-07-03T09:47:50.219Z,102156.88
2017-07-03T09:50:18.148Z,102147.47
2017-07-03T09:52:46.081Z,102154.08
2017-07-03T09:55:14.025Z,102141.11
2017-07-03T09:57:41.951Z,102158.03
2017-07-03T10:00:09.886Z,102155.27
2017-07-03T10:02:37.821Z,102156.53
2017-07-03T10:05:05.750Z,102151.08
2017-07-03T10:07:33.709Z,102151.08
2017-07-03T10:10:01.633Z,102143.09
2017-07-03T10:12:29.577Z,102152.11
2017-07-03T10:14:57.495Z,102147.63
2017-07-03T10:17:25.417Z,102150.72
2017-07-03T10:19:53.365Z,102151.47
2017-07-03T10:22:21.288Z,102152.38
2017-07-03T10:24:49.229Z,102155.11
2017-07-03T10:27:17.151Z,102151.91
2017-07-03T10:29:45.106Z,102152.73
2017-07-03T10:32:13.043Z,102145.98
2017-07-03T10:34:40.992Z,102150.92
2017-07-03T10:37:08.937Z,102157.80
2017-07-03T10:39:36.887Z,102159.10
2017-07-03T10:42:04.818Z,102145.22
2017-07-03T10:44:32.752Z,102148.94
2017-07-03T10:47:00.680Z,102139.81
2017-07-03T10:49:28.612Z,102146.45
2017-07-03T10:51:56.525Z,102150.02
2017-07-03T10:54:24.465Z,102149.42
2017-07-03T10:56:52.383Z,102153.29
2017-07-03T10:59:20.330Z,102144.39
2017-07-03T11:01:48.260Z,102135.30
2017-07-03T11:04:16.183Z,102137.55
2017-07-03T11:06:44.109Z,102136.48
2017-07-03T11:09:12.029Z,102135.02
2017-07-03T11:11:39.978Z,102129.13
2017-07-03T11:14:07.906Z,102130.89
2017-07-03T11:16:35.822Z,102127.30
2017-07-03T11:19:03.762Z,102129.59
2017-07-03T11:21:31.689Z,102130.66
2017-07-03T11:23:59.627Z,102130.78
2017-07-03T11:26:27.533Z,102123.16
2017-07-03T11:28:55.477Z,102129.59
2017-07-03T11:31:23.432Z,102125.17
2017-07-03T11:33:51.350Z,102130.23
2017-07-03T11:36:19.327Z,102124.06
2017-07-03T11:38:47.274Z,102117.02
2017-07-03T11:41:15.204Z,102107.09
2017-07-03T11:43:43.130Z,102116.50
2017-07-03T11:46:11.081Z,102109.57
2017-07-03T11:48:39.010Z,102113.61
2017-07-03T11:51:06.925Z,102113.17
2017-07-03T11:53:34.844Z,102113.42
2017-07-03T11:56:02.791Z,102115.42
2017-07-03T11:58:30.742Z,102113.89
2017-07-03T12:00:58.665Z,102113.73
2017-07-03T12:03:26.578Z,102118.23
2017-07-03T12:05:54.497Z,102123.50
2017-07-03T12:08:22.450Z,102115.74
2017-07-03T12:10:50.405Z,102111.89
2017-07-03T12:13:18.314Z,102106.91
2017-07-03T12:15:46.236Z,102106.51
2017-07-03T12:18:14.158Z,102094.64
2017-07-03T12:20:42.125Z,102092.73
2017-07-03T12:23:10.037Z,102100.72
2017-07-03T12:25:37.965Z,102104.67
2017-07-03T12:28:05.882Z,102105.03
2017-07-03T12:30:33.810Z,102106.17
2017-07-03T12:33:01.757Z,102102.98
2017-07-03T12:35:29.670Z,102112.84
2017-07-03T12:37:57.821Z,102108.23
2017-07-03T12:40:25.745Z,102110.69
2017-07-03T12:42:53.670Z,102118.05
2017-07-03T12:45:21.602Z,102107.38
2017-07-03T12:47:49.514Z,102119.79
2017-07-03T12:50:17.433Z,102109.47
2017-07-03T12:52:45.383Z,102106.69
2017-07-03T12:55:13.340Z,102101.80
2017-07-03T12:57:41.248Z,102107.91
2017-07-03T13:00:09.190Z,102101.63
2017-07-03T13:02:37.141Z,102101.63
2017-07-03T13:05:05.054Z,102098.14
2017-07-03T13:07:32.973Z,102097.33
2017-07-03T13:10:00.913Z,102097.33
2017-07-03T13:12:28.842Z,102097.36
2017-07-03T13:14:56.767Z,102096.38
2017-07-03T13:17:24.714Z,102095.25
2017-07-03T13:19:52.642Z,102087.27
2017-07-03T13:22:20.608Z,102095.21
2017-07-03T13:24:48.521Z,102087.30
2017-07-03T13:27:16.442Z,102088.02
2017-07-03T13:29:44.415Z,102087.77
2017-07-03T13:32:12.334Z,102085.47
2017-07-03T13:34:40.285Z,102084.24
2017-07-03T13:37:08.440Z,102074.64
2017-07-03T13:39:36.473Z,102082.47
2017-07-03T13:42:04.431Z,102084.53
2017-07-03T13:44:32.796Z,102087.19
2017-07-03T13:47:00.730Z,102081.97
2017-07-03T13:49:28.721Z,102081.66
2017-07-03T13:51:56.645Z,102074.21
2017-07-03T13:54:24.582Z,102078.59
2017-07-03T13:56:52.577Z,102075.33
2017-07-03T13:59:20.531Z,102076.16
2017-07-03T14:01:48.453Z,102082.28
2017-07-03T14:04:16.467Z,102079.23
2017-07-03T14:06:44.402Z,102080.36
2017-07-03T14:09:12.476Z,102069.68
2017-07-03T14:11:40.432Z,102083.70
2017-07-03T14:14:08.376Z,102076.78
2017-07-03T14:16:36.301Z,102080.03
2017-07-03T14:19:04.261Z,102071.09
2017-07-03T14:21:32.177Z,102079.86
2017-07-03T14:24:00.725Z,102083.38
2017-07-03T14:26:28.657Z,102081.59
2017-07-03T14:28:56.577Z,102074.15
2017-07-03T14:31:24.538Z,102074.58
2017-07-03T14:33:52.513Z,102066.67
2017-07-03T14:36:20.462Z,102069.24
2017-07-03T14:38:48.413Z,102075.48
2017-07-03T14:41:16.511Z,102069.39
2017-07-03T14:43:44.434Z,102079.05
2017-07-03T14:46:12.354Z,102078.25
2017-07-03T14:48:40.270Z,102069.03
2017-07-03T14:51:08.245Z,102075.33
2017-07-03T14:53:36.165Z,102080.80
2017-07-03T14:56:04.078Z,102079.48
2017-07-03T14:58:31.999Z,102084.20
2017-07-03T15:00:59.917Z,102080.25
2017-07-03T15:03:27.882Z,102081.55
2017-07-03T15:05:55.811Z,102075.04
2017-07-03T15:08:23.950Z,102070.57
2017-07-03T15:10:51.913Z,102072.52
2017-07-03T15:13:19.833Z,102068.36
2017-07-03T15:15:47.881Z,102072.62
2017-07-03T15:18:16.114Z,102061.00
2017-07-03T15:20:44.030Z,102056.97
2017-07-03T15:23:11.991Z,102064.73
2017-07-03T15:25:39.926Z,102058.13
2017-07-03T15:28:07.854Z,102059.69
2017-07-03T15:30:35.769Z,102051.14
2017-07-03T15:33:04.471Z,102050.93
2017-07-03T15:35:32.861Z,102055.73
2017-07-03T15:38:00.791Z,102052.66
2017-07-03T15:40:28.750Z,102045.80
2017-07-03T15:42:56.684Z,102047.49
2017-07-03T15:45:24.630Z,102050.55
2017-07-03T15:47:52.934Z,102050.52
2017-07-03T15:50:20.895Z,102054.08
2017-07-03T15:52:48.854Z,102046.87
2017-07-03T15:55:16.794Z,102051.48
2017-07-03T15:57:44.748Z,102049.36
2017-07-03T16:00:12.664Z,102052.39
2017-07-03T16:02:40.594Z,102050.34
2017-07-03T16:05:08.513Z,102051.55
2017-07-03T16:07:36.489Z,102046.38
2017-07-03T16:10:04.399Z,102050.93
2017-07-03T16:12:32.374Z,102050.14
2017-07-03T16:15:00.302Z,102055.31
2017-07-03T16:17:28.277Z,102060.23
2017-07-03T16:19:56.209Z,102061.31
2017-07-03T16:22:24.183Z,102057.09
2017-07-03T16:24:52.163Z,102070.63
2017-07-03T16:27:20.102Z,102059.80
2017-07-03T16:29:48.031Z,102061.08
2017-07-03T16:32:15.983Z,102055.44
2017-07-03T16:34:43.908Z,102052.94
2017-07-03T16:37:11.845Z,102054.76
2017-07-03T16:39:39.791Z,102047.02
2017-07-03T16:42:07.765Z,102046.23
2017-07-03T16:44:35.684Z,102043.72
2017-07-03T16:47:03.618Z,102041.07
2017-07-03T16:49:31.558Z,102036.30
2017-07-03T16:51:59.503Z,102044.14
2017-07-03T16:54:27.437Z,102052.44
2017-07-03T16:56:55.362Z,102042.16
2017-07-03T16:59:23.331Z,102047.09
2017-07-03T17:01:51.282Z,102039.09
2017-07-03T17:04:19.218Z,102039.30
2017-07-03T17:06:47.139Z,102041.61
2017-07-03T17:09:20.910Z,102036.56
2017-07-03T17:11:48.882Z,102033.48
2017-07-03T17:14:16.817Z,102035.66
2017-07-03T17:16:44.767Z,102033.65
2017-07-03T17:19:12.708Z,102036.21
2017-07-03T17:21:40.644Z,102032.66
2017-07-03T17:24:08.601Z,102035.52
2017-07-03T17:26:36.541Z,102031.66
2017-07-03T17:29:04.521Z,102040.80
2017-07-03T17:31:32.481Z,102038.72
2017-07-03T17:34:00.406Z,102040.33
2017-07-03T17:36:28.365Z,102042.71
2017-07-03T17:38:56.296Z,102042.59
2017-07-03T17:41:24.255Z,102043.89
2017-07-03T17:43:52.205Z,102049.23
2017-07-03T17:46:20.129Z,102034.72
2017-07-03T17:48:48.078Z,102039.36
2017-07-03T17:51:16.029Z,102030.89
2017-07-03T17:53:46.898Z,102036.19
2017-07-03T17:56:14.875Z,102040.75
2017-07-03T17:58:42.843Z,102044.47
2017-07-03T18:01:10.830Z,102045.61
2017-07-03T18:03:38.959Z,102037.59
2017-07-03T18:06:06.894Z,102038.72
2017-07-03T18:08:34.848Z,102036.91
2017-07-03T18:11:02.790Z,102034.03
2017-07-03T18:13:30.713Z,102018.54
2017-07-03T18:15:58.662Z,102027.13
2017-07-03T18:18:26.607Z,102032.59
2017-07-03T18:20:54.559Z,102028.73
2017-07-03T18:23:22.477Z,102024.78
2017-07-03T18:25:50.407Z,102029.82
2017-07-03T18:28:18.386Z,102027.05
2017-07-03T18:30:46.326Z,102031.44
2017-07-03T18:33:14.257Z,102036.81
2017-07-03T18:35:42.217Z,102045.50
2017-07-03T18:38:10.139Z,102032.95
2017-07-03T18:40:38.079Z,102035.03
2017-07-03T18:43:06.026Z,102033.26
2017-07-03T18:45:33.970Z,102036.86
2017-07-03T18:48:01.919Z,102032.86
2017-07-03T18:50:29.865Z,102041.98
2017-07-03T18:52:57.808Z,102047.76
2017-07-03T18:55:25.780Z,102051.80
2017-07-03T18:57:53.706Z,102048.83
2017-07-03T19:00:21.730Z,102050.14
2017-07-03T19:02:49.689Z,102046.14
2017-07-03T19:05:17.656Z,102050.30
2017-07-03T19:07:45.614Z,102049.91
2017-07-03T19:10:13.630Z,102048.34
2017-07-03T19:12:41.598Z,102046.91
2017-07-03T19:15:09.518Z,102053.45
2017-07-03T19:17:37.510Z,102045.86
2017-07-03T19:20:05.511Z,102049.98
2017-07-03T19:22:33.442Z,102046.11
2017-07-03T19:25:01.384Z,102049.27
2017-07-03T19:27:29.317Z,102053.70
2017-07-03T19:29:57.266Z,102052.23
2017-07-03T19:32:25.253Z,102058.56
2017-07-03T19:34:53.186Z,102054.96
2017-07-03T19:37:21.174Z,102055.52
2017-07-03T19:39:49.124Z,102048.75
2017-07-03T19:42:17.094Z,102050.62
2017-07-03T19:44:45.036Z,102064.55
2017-07-03T19:47:13.042Z,102059.52
2017-07-03T19:49:41.050Z,102061.77
2017-07-03T19:52:09.055Z,102058.17
2017-07-03T19:54:37.013Z,102064.55
2017-07-03T19:57:04.958Z,102059.34
2017-07-03T19:59:32.882Z,102062.98
2017-07-03T20:02:00.805Z,102065.39
2017-07-03T20:04:28.939Z,102068.60
2017-07-03T20:06:56.885Z,102067.48
2017-07-03T20:09:24.797Z,102071.91
2017-07-03T20:11:52.761Z,102081.45
2017-07-03T20:14:20.734Z,102080.03
2017-07-03T20:16:48.670Z,102081.49
2017-07-03T20:19:16.674Z,102081.53
2017-07-03T20:21:44.613Z,102080.14
2017-07-03T20:24:12.578Z,102088.30
2017-07-03T20:26:40.500Z,102088.26
2017-07-03T20:29:08.434Z,102094.03
2017-07-03T20:31:36.367Z,102094.47
2017-07-03T20:34:04.362Z,102099.84
2017-07-03T20:36:32.286Z,102104.31
2017-07-03T20:39:00.204Z,102103.84
2017-07-03T20:41:28.125Z,102107.83
2017-07-03T20:43:56.223Z,102102.49
2017-07-03T20:46:24.158Z,102106.48
2017-07-03T20:48:52.082Z,102107.36
2017-07-03T20:51:20.021Z,102104.66
2017-07-03T20:53:47.961Z,102106.02
2017-07-03T20:56:15.931Z,102104.31
2017-07-03T20:58:43.862Z,102107.52
2017-07-03T21:01:11.797Z,102099.92
2017-07-03T21:03:39.789Z,102103.01
2017-07-03T21:06:07.793Z,102103.96
2017-07-03T21:08:35.783Z,102107.48
2017-07-03T21:11:03.706Z,102099.88
2017-07-03T21:13:31.646Z,102103.92
2017-07-03T21:15:59.573Z,102099.02
2017-07-03T21:18:27.499Z,102099.97
2017-07-03T21:20:55.420Z,102098.63
2017-07-03T21:23:23.340Z,102101.88
2017-07-03T21:25:51.294Z,102101.88
2017-07-03T21:28:19.238Z,102102.78
2017-07-03T21:30:47.182Z,102105.95
2017-07-03T21:33:15.125Z,102106.42
2017-07-03T21:35:43.052Z,102109.11
2017-07-03T21:38:10.987Z,102108.72
2017-07-03T21:40:38.930Z,102108.33
2017-07-03T21:43:06.864Z,102108.36
2017-07-03T21:45:34.778Z,102113.27
2017-07-03T21:48:02.809Z,102114.65
2017-07-03T21:50:30.741Z,102111.96
2017-07-03T21:52:58.713Z,102107.97
2017-07-03T21:55:26.630Z,102110.27
2017-07-03T21:57:54.554Z,102113.47
2017-07-03T22:00:22.474Z,102109.43
2017-07-03T22:02:50.392Z,102113.90
2017-07-03T22:05:18.335Z,102120.63
2017-07-03T22:07:46.279Z,102119.28
2017-07-03T22:10:14.228Z,102120.23
2017-07-03T22:12:42.158Z,102118.49
2017-07-03T22:15:10.093Z,102118.48
2017-07-03T22:17:38.017Z,102113.98
2017-07-03T22:20:06.038Z,102120.27
2017-07-03T22:22:34.018Z,102114.50
2017-07-03T22:25:01.936Z,102112.72
2017-07-03T22:27:29.882Z,102117.70
2017-07-03T22:29:57.837Z,102116.32
2017-07-03T22:32:25.757Z,102115.02
2017-07-03T22:34:53.670Z,102114.58
2017-07-03T22:37:21.594Z,102110.94
2017-07-03T22:39:49.804Z,102112.33
2017-07-03T22:42:17.716Z,102121.27
2017-07-03T22:44:45.641Z,102117.23
2017-07-03T22:47:13.570Z,102114.54
2017-07-03T22:49:41.481Z,102115.49
2017-07-03T22:52:09.393Z,102118.22
2017-07-03T22:54:37.312Z,102112.02
2017-07-03T22:57:05.240Z,102116.00
2017-07-03T22:59:33.191Z,102115.13
2017-07-03T23:02:01.109Z,102120.08
2017-07-03T23:04:29.169Z,102119.64
2017-07-03T23:06:57.086Z,102121.46
2017-07-03T23:09:25.014Z,102120.16
2017-07-03T23:11:52.929Z,102122.45
2017-07-03T23:14:20.849Z,102112.13
2017-07-03T23:16:48.805Z,102114.42
2017-07-03T23:19:16.708Z,102106.83
2017-07-03T23:21:44.648Z,102109.09
2017-07-03T23:24:12.588Z,102113.08
2017-07-03T23:26:40.501Z,102102.36
2017-07-03T23:29:08.430Z,102105.96
2017-07-03T23:31:36.365Z,102099.67
2017-07-03T23:34:04.330Z,102102.40
2017-07-03T23:36:32.258Z,102099.23
2017-07-03T23:39:00.186Z,102100.15
2017-07-03T23:41:28.110Z,102100.11
2017-07-03T23:43:56.022Z,102102.40
2017-07-03T23:46:23.964Z,102104.19
2017-07-03T23:48:51.883Z,102101.93
2017-07-03T23:51:19.838Z,102098.80
2017-07-03T23:53:47.750Z,102105.13
2017-07-03T23:56:15.661Z,102103.35
2017-07-03T23:58:43.601Z,102100.27
